createdAt,value
2018-06-05T00:00:37.888Z,65.60
2018-06-05T00:03:07.805Z,65.60
2018-06-05T00:05:37.820Z,65.50
2018-06-05T00:08:10.093Z,65.70
2018-06-05T00:10:40.009Z,65.80
2018-06-05T00:13:09.919Z,65.60
2018-06-05T00:15:40.536Z,65.80
2018-06-05T00:18:10.625Z,65.50
2018-06-05T00:20:40.790Z,65.70
2018-06-05T00:23:10.600Z,65.90
2018-06-05T00:25:41.335Z,65.80
2018-06-05T00:28:11.572Z,66.00
2018-06-05T00:30:41.470Z,65.90
2018-06-05T00:33:11.384Z,65.90
2018-06-05T00:35:42.322Z,66.80
2018-06-05T00:38:12.240Z,66.10
2018-06-05T00:40:42.151Z,66.00
2018-06-05T00:43:11.946Z,66.00
2018-06-05T00:45:50.071Z,66.10
2018-06-05T00:48:20.910Z,66.30
2018-06-05T00:50:50.820Z,66.20
2018-06-05T00:53:21.553Z,66.30
2018-06-05T00:55:51.449Z,66.30
2018-06-05T00:58:21.177Z,66.30
2018-06-05T01:00:51.091Z,66.30
2018-06-05T01:03:20.903Z,66.30
2018-06-05T01:05:50.816Z,66.20
2018-06-05T01:08:20.526Z,66.40
2018-06-05T01:10:50.235Z,66.40
2018-06-05T01:13:20.950Z,66.40
2018-06-05T01:15:51.689Z,66.30
2018-06-05T01:18:21.520Z,66.40
2018-06-05T01:20:51.327Z,66.50
2018-06-05T01:23:21.140Z,66.40
2018-06-05T01:25:51.159Z,66.60
2018-06-05T01:28:20.968Z,66.50
2018-06-05T01:30:51.907Z,66.50
2018-06-05T01:33:22.554Z,66.50
2018-06-05T01:35:52.349Z,66.50
2018-06-05T01:38:22.059Z,66.70
2018-06-05T01:40:51.958Z,66.70
2018-06-05T01:54:29.234Z,66.50
2018-06-05T01:56:59.767Z,66.70
2018-06-05T01:59:34.322Z,66.80
2018-06-05T02:02:04.301Z,66.80
2018-06-05T02:04:34.009Z,66.70
2018-06-05T02:07:03.823Z,66.80
2018-06-05T02:09:34.249Z,66.80
2018-06-05T02:12:04.061Z,66.80
2018-06-05T02:14:33.873Z,66.80
2018-06-05T02:17:04.503Z,67.00
2018-06-05T02:19:34.315Z,66.90
2018-06-05T02:22:04.023Z,66.90
2018-06-05T02:27:05.391Z,66.80
2018-06-05T02:29:35.100Z,66.80
2018-06-05T02:32:04.809Z,66.90
2018-06-05T02:34:34.740Z,66.90
2018-06-05T02:39:33.940Z,66.90
2018-06-05T02:42:03.749Z,66.90
2018-06-05T02:44:34.893Z,67.00
2018-06-05T02:47:04.806Z,67.10
2018-06-05T02:49:34.619Z,67.10
2018-06-05T02:52:04.431Z,67.00
2018-06-05T02:54:34.549Z,67.20
2018-06-05T02:57:04.464Z,67.20
2018-06-05T02:59:34.376Z,67.10
2018-06-05T03:02:04.274Z,67.10
2018-06-05T03:04:34.002Z,67.10
2018-06-05T03:07:04.121Z,67.20
2018-06-05T03:09:33.831Z,67.20
2018-06-05T03:12:05.259Z,67.20
2018-06-05T03:14:45.291Z,67.20
2018-06-05T03:17:17.913Z,67.20
2018-06-05T03:20:03.206Z,67.20
2018-06-05T03:22:48.654Z,67.10
2018-06-05T03:25:35.066Z,67.80
2018-06-05T03:28:17.714Z,67.10
2018-06-05T03:33:42.318Z,67.30
2018-06-05T03:36:23.172Z,67.30
2018-06-05T03:41:48.690Z,67.30
2018-06-05T03:44:29.359Z,67.40
2018-06-05T03:50:30.230Z,67.30
2018-06-05T03:53:17.229Z,67.40
2018-06-05T03:55:58.201Z,67.50
2018-06-05T04:01:18.363Z,67.50
2018-06-05T04:03:59.577Z,67.60
2018-06-05T04:06:41.424Z,67.70
2018-06-05T04:09:31.521Z,67.70
2018-06-05T04:12:17.667Z,67.60
2018-06-05T04:17:59.563Z,67.60
2018-06-05T04:23:22.811Z,67.70
2018-06-05T04:29:24.919Z,67.80
2018-06-05T04:38:13.437Z,67.90
2018-06-05T04:40:56.359Z,67.90
2018-06-05T04:43:40.611Z,67.90
2018-06-05T04:46:34.895Z,68.10
2018-06-05T04:52:10.922Z,68.10
2018-06-05T05:00:45.234Z,68.20
2018-06-05T05:03:24.497Z,68.10
2018-06-05T05:08:44.457Z,68.10
2018-06-05T05:11:31.385Z,68.10
2018-06-05T05:17:08.122Z,68.00
2018-06-05T05:19:54.054Z,67.90
2018-06-05T05:25:33.270Z,68.00
2018-06-05T05:36:35.851Z,68.00
2018-06-05T05:39:23.944Z,68.10
2018-06-05T05:42:05.730Z,68.80
2018-06-05T05:44:46.830Z,67.90
2018-06-05T05:47:28.106Z,67.90
2018-06-05T05:53:22.249Z,67.90
2018-06-05T05:56:19.874Z,67.80
2018-06-05T05:59:06.440Z,67.90
2018-06-05T06:01:55.009Z,68.00
2018-06-05T06:04:39.983Z,67.80
2018-06-05T06:07:23.489Z,67.90
2018-06-05T06:10:04.856Z,67.90
2018-06-05T06:14:04.260Z,67.90
2018-06-05T06:16:42.082Z,67.90
2018-06-05T06:22:13.380Z,67.80
2018-06-05T06:28:04.037Z,67.90
2018-06-05T06:30:43.054Z,67.80
2018-06-05T06:36:15.963Z,67.80
2018-06-05T06:38:56.889Z,67.80
2018-06-05T06:41:27.077Z,67.80
2018-06-05T06:43:56.976Z,67.90
2018-06-05T06:46:27.308Z,67.90
2018-06-05T06:48:57.353Z,67.90
2018-06-05T06:51:27.332Z,68.10
2018-06-05T06:53:57.249Z,67.90
2018-06-05T06:56:27.571Z,67.90
2018-06-05T06:58:57.381Z,67.90
2018-06-05T07:01:27.390Z,67.90
2018-06-05T07:03:57.314Z,67.90
2018-06-05T07:06:27.125Z,67.80
2018-06-05T07:08:57.802Z,67.90
2018-06-05T07:11:28.118Z,67.90
2018-06-05T07:13:58.824Z,67.80
2018-06-05T07:16:29.036Z,67.80
2018-06-05T07:18:58.745Z,67.90
2018-06-05T07:21:29.092Z,67.90
2018-06-05T07:23:59.261Z,67.90
2018-06-05T07:26:30.435Z,67.90
2018-06-05T07:29:00.246Z,68.00
2018-06-05T07:31:30.263Z,67.90
2018-06-05T07:34:00.146Z,67.70
2018-06-05T07:36:29.885Z,67.70
2018-06-05T07:38:59.698Z,67.60
2018-06-05T07:41:30.328Z,67.60
2018-06-05T07:44:00.141Z,67.70
2018-06-05T07:46:30.157Z,67.70
2018-06-05T07:48:59.998Z,67.60
2018-06-05T07:51:29.879Z,67.70
2018-06-05T07:54:00.005Z,67.70
2018-06-05T07:56:29.917Z,67.60
2018-06-05T07:59:00.103Z,67.70
2018-06-05T08:01:30.582Z,67.60
2018-06-05T08:04:01.180Z,67.40
2018-06-05T08:06:31.213Z,67.60
2018-06-05T08:09:01.027Z,67.60
2018-06-05T08:11:30.836Z,67.50
2018-06-05T08:14:00.751Z,67.50
2018-06-05T08:16:30.741Z,67.40
2018-06-05T08:19:01.368Z,67.50
2018-06-05T08:21:31.108Z,67.60
2018-06-05T08:24:00.921Z,67.40
2018-06-05T08:27:01.349Z,67.50
2018-06-05T08:29:31.366Z,67.10
2018-06-05T08:32:01.184Z,67.30
2018-06-05T08:34:31.151Z,67.30
2018-06-05T08:37:00.905Z,67.20
2018-06-05T08:39:30.828Z,67.20
2018-06-05T08:42:00.939Z,67.30
2018-06-05T08:44:30.758Z,67.20
2018-06-05T08:47:00.664Z,67.30
2018-06-05T08:49:30.680Z,67.30
2018-06-05T08:52:00.597Z,67.20
2018-06-05T08:54:30.514Z,67.10
2018-06-05T08:57:00.429Z,67.30
2018-06-05T08:59:30.545Z,66.80
2018-06-05T09:02:01.273Z,66.60
2018-06-05T09:04:31.303Z,66.60
2018-06-05T09:07:01.210Z,66.60
2018-06-05T09:09:31.239Z,66.70
2018-06-05T09:12:01.041Z,66.70
2018-06-05T09:14:30.950Z,66.80
2018-06-05T09:17:00.869Z,66.50
2018-06-05T09:19:31.393Z,66.10
2018-06-05T09:22:01.187Z,66.20
2018-06-05T09:24:31.243Z,66.30
2018-06-05T09:27:01.482Z,66.40
2018-06-05T09:29:32.182Z,66.50
2018-06-05T09:32:02.710Z,66.30
2018-06-05T09:34:32.871Z,66.20
2018-06-05T09:37:03.155Z,66.40
2018-06-05T09:39:33.076Z,66.50
2018-06-05T09:44:35.250Z,66.60
2018-06-05T09:47:05.265Z,66.70
2018-06-05T09:49:35.268Z,67.00
2018-06-05T09:52:05.161Z,66.70
2018-06-05T09:54:35.008Z,66.90
2018-06-05T09:57:05.230Z,66.60
2018-06-05T09:59:35.149Z,66.80
2018-06-05T10:02:05.163Z,66.90
2018-06-05T10:04:35.141Z,66.80
2018-06-05T10:07:06.117Z,66.60
2018-06-05T10:09:36.200Z,66.70
2018-06-05T10:12:06.029Z,66.80
2018-06-05T10:14:35.841Z,67.00
2018-06-05T10:17:05.672Z,67.00
2018-06-05T10:19:35.755Z,67.20
2018-06-05T10:22:06.013Z,67.20
2018-06-05T10:24:36.334Z,66.90
2018-06-05T10:27:06.372Z,66.90
2018-06-05T10:29:36.270Z,67.00
2018-06-05T10:32:06.183Z,67.00
2018-06-05T10:34:35.900Z,66.80
2018-06-05T10:37:05.937Z,66.80
2018-06-05T10:39:35.927Z,66.70
2018-06-05T10:42:06.048Z,66.70
2018-06-05T10:45:58.123Z,66.90
2018-06-05T10:48:28.628Z,66.70
2018-06-05T10:50:59.152Z,66.90
2018-06-05T10:53:29.266Z,67.00
2018-06-05T10:55:59.196Z,67.20
2018-06-05T10:58:29.192Z,67.20
2018-06-05T11:00:59.108Z,67.20
2018-06-05T11:03:28.818Z,67.40
2018-06-05T11:05:58.628Z,67.40
2018-06-05T11:08:28.544Z,66.90
2018-06-05T11:10:58.665Z,67.00
2018-06-05T11:13:29.277Z,67.00
2018-06-05T11:15:59.208Z,66.90
2018-06-05T11:18:29.430Z,67.10
2018-06-05T11:20:59.259Z,67.20
2018-06-05T11:23:29.054Z,67.20
2018-06-05T11:25:58.969Z,67.30
2018-06-05T11:28:29.089Z,67.30
2018-06-05T11:30:59.721Z,67.20
2018-06-05T11:33:29.737Z,67.20
2018-06-05T11:35:59.756Z,66.90
2018-06-05T11:38:29.547Z,67.20
2018-06-05T11:40:59.482Z,67.10
2018-06-05T11:43:29.453Z,67.10
2018-06-05T11:45:59.310Z,67.30
2018-06-05T11:48:29.641Z,67.20
2018-06-05T11:50:59.343Z,67.10
2018-06-05T11:53:29.156Z,67.20
2018-06-05T11:55:59.084Z,67.00
2018-06-05T11:58:28.985Z,66.90
2018-06-05T12:00:58.897Z,67.20
2018-06-05T12:03:28.915Z,67.20
2018-06-05T12:05:58.815Z,67.20
2018-06-05T12:08:29.051Z,67.10
2018-06-05T12:10:58.739Z,67.10
2018-06-05T12:13:28.767Z,66.60
2018-06-05T12:15:58.736Z,66.70
2018-06-05T12:18:28.607Z,66.70
2018-06-05T12:20:58.529Z,66.70
2018-06-05T12:23:28.333Z,66.80
2018-06-05T12:25:58.141Z,66.20
2018-06-05T12:28:28.163Z,66.80
2018-06-05T12:30:58.729Z,66.90
2018-06-05T12:33:28.735Z,66.80
2018-06-05T12:35:58.929Z,66.80
2018-06-05T12:38:29.115Z,66.90
2018-06-05T12:40:59.075Z,66.90
2018-06-05T12:43:29.188Z,66.80
2018-06-05T12:46:00.078Z,66.30
2018-06-05T12:48:29.842Z,66.40
2018-06-05T12:50:59.951Z,67.20
2018-06-05T12:53:29.847Z,65.80
2018-06-05T12:58:30.108Z,65.90
2018-06-05T13:01:00.332Z,65.40
2018-06-05T13:03:30.140Z,65.50
2018-06-05T13:06:00.769Z,65.50
2018-06-05T13:08:30.684Z,65.40
2018-06-05T13:11:00.474Z,65.30
2018-06-05T13:13:30.410Z,64.90
2018-06-05T13:16:00.428Z,65.20
2018-06-05T13:18:30.454Z,65.10
2018-06-05T13:21:00.362Z,65.30
2018-06-05T13:23:30.314Z,65.10
2018-06-05T13:26:00.190Z,64.70
2018-06-05T13:28:29.903Z,65.10
2018-06-05T13:30:59.993Z,64.90
2018-06-05T13:33:29.727Z,64.80
2018-06-05T13:35:59.553Z,64.70
2018-06-05T13:38:29.645Z,64.70
2018-06-05T13:40:59.473Z,65.00
2018-06-05T13:43:29.284Z,64.70
2018-06-05T13:45:59.181Z,64.40
2018-06-05T13:48:29.110Z,64.00
2018-06-05T13:50:59.035Z,63.30
2018-06-05T13:53:29.147Z,63.10
2018-06-05T13:55:58.862Z,62.20
2018-06-05T13:58:29.081Z,63.10
2018-06-05T14:00:58.997Z,63.10
2018-06-05T14:03:29.010Z,63.00
2018-06-05T14:05:59.129Z,63.30
2018-06-05T14:08:29.149Z,62.90
2018-06-05T14:10:59.269Z,62.80
2018-06-05T14:13:29.187Z,62.40
2018-06-05T14:15:59.566Z,62.10
2018-06-05T14:18:30.748Z,62.20
2018-06-05T14:21:00.670Z,61.90
2018-06-05T14:23:30.476Z,62.00
2018-06-05T14:26:00.414Z,61.70
2018-06-05T14:28:30.405Z,61.00
2018-06-05T14:31:00.638Z,61.20
2018-06-05T14:33:30.559Z,60.60
2018-06-05T14:36:00.685Z,60.70
2018-06-05T14:38:30.781Z,60.40
2018-06-05T14:41:00.694Z,60.60
2018-06-05T14:43:30.406Z,61.00
2018-06-05T14:46:00.221Z,61.00
2018-06-05T14:49:01.058Z,61.40
2018-06-05T14:51:30.911Z,61.10
2018-06-05T14:54:00.890Z,61.30
2018-06-05T14:56:30.799Z,60.70
2018-06-05T14:59:00.862Z,60.90
2018-06-05T15:01:31.553Z,61.00
2018-06-05T15:04:01.766Z,61.30
2018-06-05T15:06:32.301Z,61.30
2018-06-05T15:09:02.113Z,60.40
2018-06-05T15:11:32.897Z,60.60
2018-06-05T15:14:03.171Z,61.00
2018-06-05T15:16:33.313Z,60.50
2018-06-05T15:19:02.998Z,60.50
2018-06-05T15:21:32.821Z,60.20
2018-06-05T15:24:02.812Z,60.30
2018-06-05T15:26:32.757Z,60.80
2018-06-05T15:29:02.924Z,60.90
2018-06-05T15:31:33.042Z,61.80
2018-06-05T15:34:02.817Z,60.50
2018-06-05T15:36:32.812Z,60.60
2018-06-05T15:39:02.726Z,60.50
2018-06-05T15:41:33.255Z,60.00
2018-06-05T15:44:03.683Z,60.70
2018-06-05T15:46:34.312Z,60.60
2018-06-05T15:49:04.535Z,60.50
2018-06-05T15:51:35.272Z,60.50
2018-06-05T15:54:05.343Z,60.90
2018-06-05T15:56:35.206Z,60.50
2018-06-05T15:59:05.120Z,60.30
2018-06-05T16:01:35.436Z,60.10
2018-06-05T16:04:05.654Z,60.60
2018-06-05T16:06:36.712Z,60.30
2018-06-05T16:09:10.310Z,60.00
2018-06-05T16:11:40.465Z,60.40
2018-06-05T16:14:10.540Z,59.80
2018-06-05T16:16:40.659Z,59.70
2018-06-05T16:19:11.187Z,58.90
2018-06-05T16:21:41.114Z,59.90
2018-06-05T16:24:11.428Z,59.30
2018-06-05T16:26:41.757Z,59.60
2018-06-05T16:29:11.748Z,59.20
2018-06-05T16:31:42.071Z,59.90
2018-06-05T16:34:12.012Z,59.60
2018-06-05T16:36:42.175Z,58.40
2018-06-05T16:39:15.221Z,58.70
2018-06-05T16:41:52.674Z,58.70
2018-06-05T16:44:29.279Z,58.80
2018-06-05T16:46:59.191Z,59.20
2018-06-05T16:49:29.822Z,58.20
2018-06-05T16:51:59.744Z,58.50
2018-06-05T16:54:29.857Z,58.40
2018-06-05T16:57:00.180Z,58.40
2018-06-05T16:59:30.232Z,58.70
2018-06-05T17:02:00.696Z,57.00
2018-06-05T17:04:31.749Z,57.40
2018-06-05T17:07:01.796Z,57.70
2018-06-05T17:12:01.513Z,58.10
2018-06-05T17:14:31.769Z,57.70
2018-06-05T17:17:02.056Z,58.10
2018-06-05T17:19:32.131Z,57.30
2018-06-05T17:22:02.413Z,57.10
2018-06-05T17:24:32.311Z,51.70
2018-06-05T17:27:02.243Z,50.60
2018-06-05T17:29:32.559Z,52.80
2018-06-05T17:32:03.490Z,54.00
2018-06-05T17:34:33.615Z,53.70
2018-06-05T17:37:03.823Z,54.10
2018-06-05T17:39:34.804Z,54.50
2018-06-05T17:42:04.684Z,54.20
2018-06-05T17:44:34.855Z,54.30
2018-06-05T17:47:05.034Z,54.80
2018-06-05T17:52:04.736Z,54.30
2018-06-05T17:54:35.485Z,54.90
2018-06-05T17:57:05.910Z,55.00
2018-06-05T17:59:36.297Z,54.80
2018-06-05T18:02:06.672Z,54.10
2018-06-05T18:04:36.478Z,54.80
2018-06-05T18:07:06.490Z,54.80
2018-06-05T18:09:37.120Z,54.60
2018-06-05T18:12:07.056Z,54.60
2018-06-05T18:14:36.960Z,54.80
2018-06-05T18:17:07.478Z,54.50
2018-06-05T18:19:37.699Z,54.50
2018-06-05T18:22:07.801Z,54.80
2018-06-05T18:24:37.812Z,55.10
2018-06-05T18:27:08.465Z,55.30
2018-06-05T18:29:38.588Z,55.30
2018-06-05T18:32:08.507Z,55.20
2018-06-05T18:34:38.415Z,55.40
2018-06-05T18:37:08.514Z,55.60
2018-06-05T18:39:38.456Z,55.60
2018-06-05T18:42:09.387Z,55.70
2018-06-05T18:44:39.301Z,56.10
2018-06-05T18:47:09.217Z,56.30
2018-06-05T18:49:39.134Z,56.20
2018-06-05T18:52:08.943Z,56.40
2018-06-05T18:54:38.960Z,56.70
2018-06-05T18:57:08.878Z,56.90
2018-06-05T18:59:39.078Z,56.90
2018-06-05T19:02:09.627Z,57.00
2018-06-05T19:04:39.775Z,56.90
2018-06-05T19:07:09.798Z,57.00
2018-06-05T19:09:39.675Z,57.30
2018-06-05T19:12:09.983Z,57.10
2018-06-05T19:14:40.464Z,57.30
2018-06-05T19:17:10.621Z,57.40
2018-06-05T19:19:40.804Z,57.50
2018-06-05T19:22:11.200Z,57.50
2018-06-05T19:24:42.132Z,57.50
2018-06-05T19:27:12.648Z,57.60
2018-06-05T19:29:42.741Z,57.70
2018-06-05T19:32:12.898Z,57.80
2018-06-05T19:34:43.023Z,57.80
2018-06-05T19:37:13.923Z,57.80
2018-06-05T19:39:47.198Z,57.80
2018-06-05T19:42:17.589Z,57.90
2018-06-05T19:44:47.734Z,58.00
2018-06-05T19:47:18.000Z,58.10
2018-06-05T19:49:48.341Z,58.00
2018-06-05T19:52:18.260Z,58.10
2018-06-05T19:54:48.273Z,58.20
2018-06-05T19:57:18.372Z,58.20
2018-06-05T19:59:48.353Z,58.10
2018-06-05T20:02:18.379Z,58.20
2018-06-05T20:04:48.471Z,58.30
2018-06-05T20:07:18.358Z,58.50
2018-06-05T20:09:48.169Z,58.40
2018-06-05T20:12:18.596Z,58.40
2018-06-05T20:14:48.549Z,58.40
2018-06-05T20:17:18.557Z,58.50
2018-06-05T20:19:48.747Z,58.50
2018-06-05T20:22:18.815Z,58.50
2018-06-05T20:24:48.679Z,58.50
2018-06-05T20:27:18.498Z,58.50
2018-06-05T20:29:48.544Z,59.00
2018-06-05T20:32:19.544Z,58.20
2018-06-05T20:34:49.663Z,58.30
2018-06-05T20:37:19.879Z,58.40
2018-06-05T20:39:50.010Z,58.30
2018-06-05T20:42:20.130Z,58.10
2018-06-05T20:44:50.117Z,58.20
2018-06-05T20:47:20.339Z,57.90
2018-06-05T20:49:50.310Z,57.80
2018-06-05T20:52:20.416Z,58.10
2018-06-05T20:54:50.357Z,57.70
2018-06-05T20:57:20.436Z,58.10
2018-06-05T20:59:50.352Z,57.90
2018-06-05T21:02:20.264Z,57.90
2018-06-05T21:04:50.372Z,57.90
2018-06-05T21:07:20.551Z,57.90
2018-06-05T21:09:50.723Z,57.70
2018-06-05T21:12:20.744Z,57.60
2018-06-05T21:14:50.656Z,57.80
2018-06-05T21:17:20.661Z,57.80
2018-06-05T21:19:50.484Z,57.80
2018-06-05T21:22:20.809Z,57.70
2018-06-05T21:24:50.933Z,57.60
2018-06-05T21:27:21.049Z,57.50
2018-06-05T21:29:51.168Z,57.50
2018-06-05T21:32:21.189Z,57.30
2018-06-05T21:34:51.408Z,57.70
2018-06-05T21:37:21.985Z,57.30
2018-06-05T21:39:52.017Z,57.50
2018-06-05T21:42:22.280Z,57.20
2018-06-05T21:44:52.062Z,57.00
2018-06-05T21:47:21.898Z,56.90
2018-06-05T21:49:51.903Z,57.10
2018-06-05T21:52:22.958Z,57.20
2018-06-05T21:54:53.185Z,57.00
2018-06-05T21:57:22.891Z,57.00
2018-06-05T21:59:52.758Z,56.80
2018-06-05T22:02:22.904Z,57.00
2018-06-05T22:04:52.818Z,57.00
2018-06-05T22:07:22.751Z,56.90
2018-06-05T22:09:52.663Z,56.70
2018-06-05T22:12:23.194Z,56.90
2018-06-05T22:14:53.195Z,56.70
2018-06-05T22:17:23.025Z,56.80
2018-06-05T22:19:52.937Z,56.90
2018-06-05T22:22:23.159Z,56.60
2018-06-05T22:24:53.173Z,56.50
2018-06-05T22:27:23.089Z,56.30
2018-06-05T22:29:53.309Z,56.50
2018-06-05T22:32:23.224Z,56.50
2018-06-05T22:37:22.747Z,56.40
2018-06-05T22:39:52.767Z,56.10
2018-06-05T22:42:22.678Z,56.10
2018-06-05T22:44:52.606Z,56.00
2018-06-05T22:47:22.506Z,56.10
2018-06-05T22:49:53.204Z,56.10
2018-06-05T22:52:23.155Z,55.80
2018-06-05T22:54:53.171Z,55.80
2018-06-05T22:57:23.167Z,55.70
2018-06-05T22:59:53.004Z,55.70
2018-06-05T23:02:22.813Z,55.80
2018-06-05T23:04:52.609Z,56.30
2018-06-05T23:07:22.845Z,55.60
2018-06-05T23:09:52.965Z,56.10
2018-06-05T23:12:23.699Z,55.40
2018-06-05T23:14:53.411Z,55.70
2018-06-05T23:17:23.323Z,55.70
2018-06-05T23:19:53.544Z,55.70
2018-06-05T23:22:23.358Z,55.80
2018-06-05T23:24:53.271Z,55.70
2018-06-05T23:27:23.188Z,55.60
2018-06-05T23:29:53.099Z,56.00
2018-06-05T23:32:22.912Z,55.80
2018-06-05T23:34:52.621Z,56.40
2018-06-05T23:37:22.330Z,55.50
2018-06-05T23:39:52.041Z,55.60
2018-06-05T23:42:21.886Z,55.90
2018-06-05T23:44:51.956Z,55.80
2018-06-05T23:47:21.681Z,55.70
2018-06-05T23:49:51.393Z,55.90
2018-06-05T23:54:50.707Z,55.90
2018-06-05T23:57:20.426Z,55.80
2018-06-05T23:59:50.332Z,55.90
